Terminal Aerodrome Forecast
Issued by NWS

Home | Current Version | Previous Version | Text Only | Print | Product List | Glossary On
Versions: 1 2 3 4 5 6 7 8 9 10 11 12 13
000
FTUS46 KSTO 282300
TAFSCK
TAF
KSCK 282324Z 2900/2924 25009KT P6SM BKN250
     FM290400 29010KT P6SM BKN150
     FM290700 35005KT P6SM BKN150 BKN250
     FM292000 27007KT P6SM FEW250=

USA.gov is the U.S. government's official web portal to all federal, state and local government web resources and services.